Time;durP1;ratioP1;P1;durP2;ratioP2;P2;SDS_P1;SDS_P2;PMS_P1;PMS_P2;Temp;Humidity;BMP_temperature;BMP_pressure;BME280_temperature;BME280_humidity;BME280_pressure;Samples;Min_cycle;Max_cycle;Signal;HPM_P1;HPM_P2
2021/01/08 00:01:41;;;;;;;11.18;6.72;;;17.30;55.20;;;;;;5086579;28;20261;-64
2021/01/08 00:04:06;;;;;;;9.02;5.82;;;17.20;55.20;;;;;;5068789;28;20170;-64
2021/01/08 00:06:32;;;;;;;10.75;6.38;;;17.30;55.20;;;;;;5086231;28;20181;-64
2021/01/08 00:08:58;;;;;;;11.32;6.07;;;17.20;55.10;;;;;;5086290;28;20265;-64
2021/01/08 00:11:24;;;;;;;8.95;5.90;;;17.20;55.10;;;;;;5086210;28;20264;-64
2021/01/08 00:13:50;;;;;;;11.70;6.75;;;17.20;55.10;;;;;;5086547;28;20634;-65
2021/01/08 00:16:16;;;;;;;8.68;6.38;;;17.20;55.20;;;;;;5086401;28;20216;-64
2021/01/08 00:18:41;;;;;;;8.45;5.75;;;17.20;55.20;;;;;;5086217;28;20170;-65
2021/01/08 00:21:07;;;;;;;7.72;5.43;;;17.10;55.10;;;;;;5085956;28;20178;-65
2021/01/08 00:23:32;;;;;;;9.45;5.70;;;17.20;55.20;;;;;;5085870;28;20174;-64
2021/01/08 00:25:58;;;;;;;7.78;5.05;;;17.10;55.10;;;;;;5086229;28;20270;-64
2021/01/08 00:28:23;;;;;;;10.68;6.35;;;17.10;55.20;;;;;;5067906;28;20564;-65
2021/01/08 00:30:49;;;;;;;9.48;5.82;;;17.10;55.10;;;;;;5086054;28;20178;-64
2021/01/08 00:33:14;;;;;;;10.45;5.85;;;17.10;55.10;;;;;;5085804;28;20277;-63
2021/01/08 00:35:40;;;;;;;9.77;5.68;;;17.10;55.20;;;;;;5085753;28;20205;-63
2021/01/08 00:38:06;;;;;;;9.23;5.57;;;17.00;55.10;;;;;;5085628;28;20243;-63
2021/01/08 00:40:32;;;;;;;7.93;5.03;;;17.10;55.20;;;;;;5085645;28;20166;-64
2021/01/08 00:42:58;;;;;;;8.52;5.00;;;17.10;55.20;;;;;;5085585;28;20943;-65
2021/01/08 00:45:23;;;;;;;6.97;4.97;;;17.00;55.20;;;;;;5085741;28;20288;-64
2021/01/08 00:47:49;;;;;;;8.57;5.53;;;17.00;55.10;;;;;;5067743;28;20207;-64
2021/01/08 00:50:15;;;;;;;8.73;5.18;;;17.00;55.10;;;;;;5085600;28;20189;-64
2021/01/08 00:52:40;;;;;;;9.00;5.28;;;17.00;55.10;;;;;;5085446;28;20216;-63
2021/01/08 00:55:07;;;;;;;8.32;5.20;;;17.00;55.10;;;;;;5084757;28;20217;-63
2021/01/08 00:57:32;;;;;;;7.05;5.13;;;17.00;55.10;;;;;;5067399;28;20493;-63
2021/01/08 00:59:58;;;;;;;9.93;5.38;;;16.90;55.10;;;;;;5084591;28;20653;-63
2021/01/08 01:02:24;;;;;;;7.75;4.75;;;17.00;55.10;;;;;;5085123;28;20927;-63
2021/01/08 01:04:49;;;;;;;7.70;5.15;;;16.90;55.10;;;;;;5085126;28;20208;-63
2021/01/08 01:07:15;;;;;;;7.75;4.57;;;16.90;55.10;;;;;;5085065;28;20553;-63
2021/01/08 01:09:40;;;;;;;9.52;5.10;;;16.90;55.10;;;;;;5067110;28;20180;-63
2021/01/08 01:12:06;;;;;;;7.72;4.93;;;16.90;55.10;;;;;;5085046;28;20174;-65
2021/01/08 01:14:32;;;;;;;7.10;5.30;;;16.90;55.10;;;;;;5084848;28;20189;-64
2021/01/08 01:16:57;;;;;;;9.07;4.55;;;16.90;55.10;;;;;;5084915;28;20177;-65
2021/01/08 01:19:23;;;;;;;8.07;4.90;;;16.90;55.10;;;;;;5084593;28;20243;-65
2021/01/08 01:21:48;;;;;;;8.80;5.15;;;16.80;55.00;;;;;;5085138;28;20185;-64
2021/01/08 01:24:14;;;;;;;7.03;4.65;;;16.80;55.00;;;;;;5084936;28;20180;-64
2021/01/08 01:26:39;;;;;;;8.95;4.90;;;16.80;55.00;;;;;;5084944;28;20573;-64
2021/01/08 01:29:05;;;;;;;6.32;4.65;;;16.80;55.00;;;;;;5066093;28;20284;-63
2021/01/08 01:31:30;;;;;;;7.80;4.47;;;16.80;55.00;;;;;;5084001;28;20639;-63
2021/01/08 01:33:56;;;;;;;8.05;5.05;;;16.80;55.00;;;;;;5084255;28;20166;-61
2021/01/08 01:36:22;;;;;;;7.03;4.57;;;16.80;55.00;;;;;;5084137;28;20205;-63
2021/01/08 01:38:47;;;;;;;9.15;5.55;;;16.80;55.10;;;;;;5084159;28;20260;-64
2021/01/08 01:41:13;;;;;;;5.32;4.10;;;16.80;55.10;;;;;;5083811;28;20182;-64
2021/01/08 01:43:38;;;;;;;5.80;4.30;;;16.70;55.10;;;;;;5083668;28;20178;-65
2021/01/08 01:46:04;;;;;;;7.43;3.88;;;16.80;55.20;;;;;;5083749;28;20642;-63
2021/01/08 01:48:29;;;;;;;6.60;4.72;;;16.70;55.10;;;;;;5065962;28;20180;-63
2021/01/08 01:50:55;;;;;;;5.60;4.18;;;16.70;55.10;;;;;;5066049;28;20184;-63
2021/01/08 01:53:21;;;;;;;7.10;4.28;;;16.70;55.10;;;;;;5065485;28;20188;-64
2021/01/08 01:55:47;;;;;;;6.53;4.18;;;16.70;55.10;;;;;;5065605;28;20678;-63
2021/01/08 01:58:12;;;;;;;7.20;4.30;;;16.70;55.10;;;;;;5083740;28;20174;-62
2021/01/08 02:00:38;;;;;;;6.93;4.18;;;16.70;55.10;;;;;;5083530;28;20209;-63
2021/01/08 02:03:15;;;;;;;6.70;4.30;;;16.70;55.10;;;;;;5083964;28;20931;-63
2021/01/08 02:05:40;;;;;;;6.22;4.57;;;16.70;55.10;;;;;;5066477;28;20169;-63
2021/01/08 02:08:16;;;;;;;6.57;4.18;;;16.70;55.10;;;;;;5065321;28;20232;-62
2021/01/08 02:10:55;;;;;;;5.97;4.30;;;16.60;55.00;;;;;;5064914;28;20177;-63
2021/01/08 02:13:35;;;;;;;6.22;4.22;;;16.70;55.10;;;;;;5065491;28;20201;-63
2021/01/08 02:16:00;;;;;;;5.72;4.10;;;16.60;55.00;;;;;;5065077;28;20262;-63
2021/01/08 02:18:26;;;;;;;5.57;3.80;;;16.60;55.00;;;;;;5065261;28;20623;-64
2021/01/08 02:20:52;;;;;;;5.15;3.60;;;16.60;55.10;;;;;;5065537;28;20231;-65
2021/01/08 02:23:21;;;;;;;5.75;3.72;;;16.60;55.10;;;;;;5065455;28;20533;-64
2021/01/08 02:25:47;;;;;;;5.07;3.83;;;16.50;55.00;;;;;;5064875;28;20650;-63
2021/01/08 02:28:24;;;;;;;6.45;3.70;;;16.60;55.10;;;;;;5044680;28;599515;-64
2021/01/08 02:30:50;;;;;;;4.55;3.53;;;16.60;55.10;;;;;;5066178;28;20183;-63
2021/01/08 02:33:16;;;;;;;6.38;4.13;;;16.50;55.00;;;;;;5065944;28;20174;-63
2021/01/08 02:35:41;;;;;;;6.43;3.97;;;16.60;55.10;;;;;;5066154;28;20217;-63
2021/01/08 02:38:07;;;;;;;6.65;3.95;;;16.60;55.10;;;;;;5084044;28;20177;-63
2021/01/08 02:40:33;;;;;;;5.57;4.18;;;16.50;55.00;;;;;;5065892;28;20201;-64
2021/01/08 02:43:03;;;;;;;5.93;3.30;;;16.50;55.00;;;;;;5065833;28;20182;-65
2021/01/08 02:45:29;;;;;;;5.80;3.33;;;16.50;55.00;;;;;;5066157;28;20243;-64
2021/01/08 02:47:54;;;;;;;6.03;3.85;;;16.50;55.00;;;;;;5066236;28;20580;-64
2021/01/08 02:50:20;;;;;;;4.68;3.45;;;16.50;55.00;;;;;;5083699;28;20178;-64
2021/01/08 02:52:48;;;;;;;4.82;3.40;;;16.50;55.00;;;;;;5083881;28;20178;-64
2021/01/08 02:55:16;;;;;;;5.55;3.50;;;16.50;55.10;;;;;;5065761;28;20218;-64
2021/01/08 02:57:42;;;;;;;7.03;3.70;;;16.50;55.10;;;;;;5065662;28;20971;-62
2021/01/08 03:00:08;;;;;;;4.80;3.33;;;16.40;55.00;;;;;;5083619;28;20201;-63
2021/01/08 03:02:34;;;;;;;4.85;3.45;;;16.40;55.00;;;;;;5065676;28;20512;-64
2021/01/08 03:04:59;;;;;;;6.25;3.40;;;16.50;55.10;;;;;;5083820;28;20182;-64
2021/01/08 03:07:25;;;;;;;3.53;2.95;;;16.40;55.00;;;;;;5065745;28;20986;-63
2021/01/08 03:09:50;;;;;;;4.28;3.15;;;16.40;55.00;;;;;;5065615;28;20921;-63
2021/01/08 03:12:16;;;;;;;5.07;3.42;;;16.40;55.00;;;;;;5083495;28;21131;-63
2021/01/08 03:14:45;;;;;;;4.10;3.45;;;16.40;55.60;;;;;;5065432;28;20209;-64
2021/01/08 03:17:11;;;;;;;5.00;2.78;;;16.40;55.00;;;;;;5065756;28;20260;-63
2021/01/08 03:19:37;;;;;;;4.53;3.33;;;16.40;55.00;;;;;;5083690;28;20178;-64
2021/01/08 03:22:03;;;;;;;4.38;3.00;;;16.40;55.00;;;;;;5066061;28;20181;-63
2021/01/08 03:24:29;;;;;;;4.93;3.53;;;16.30;55.00;;;;;;5087279;28;21016;-64
2021/01/08 03:26:54;;;;;;;4.38;3.25;;;16.30;55.00;;;;;;5087434;28;20173;-63
2021/01/08 03:29:20;;;;;;;3.97;2.92;;;16.30;55.00;;;;;;5086850;28;20305;-63
2021/01/08 03:31:45;;;;;;;3.80;2.97;;;16.30;55.00;;;;;;5086433;28;20286;-62
2021/01/08 03:34:11;;;;;;;4.72;3.00;;;16.30;55.00;;;;;;5086715;28;20174;-62
2021/01/08 03:36:36;;;;;;;4.72;3.47;;;16.30;55.00;;;;;;5086877;28;20978;-62
2021/01/08 03:39:02;;;;;;;5.25;3.08;;;16.30;55.00;;;;;;5068949;28;20178;-63
2021/01/08 03:41:28;;;;;;;3.60;2.63;;;16.30;55.00;;;;;;5086673;28;20178;-64
2021/01/08 03:43:53;;;;;;;4.93;3.25;;;16.30;55.00;;;;;;5086845;28;20214;-64
2021/01/08 03:46:19;;;;;;;3.85;2.92;;;16.30;55.00;;;;;;5087041;28;20256;-64
2021/01/08 03:48:44;;;;;;;4.85;2.75;;;16.20;54.90;;;;;;5068818;28;20209;-64
2021/01/08 03:51:10;;;;;;;5.05;3.35;;;16.20;55.00;;;;;;5086885;28;20650;-64
2021/01/08 03:53:35;;;;;;;4.65;2.88;;;16.20;55.00;;;;;;5086439;28;20552;-64
2021/01/08 03:56:01;;;;;;;3.83;2.80;;;16.20;55.00;;;;;;5086505;28;20209;-63
2021/01/08 03:58:26;;;;;;;3.25;2.50;;;16.20;55.00;;;;;;5086458;28;20178;-64
2021/01/08 04:00:52;;;;;;;3.42;2.80;;;16.20;55.00;;;;;;5086556;28;20632;-63
2021/01/08 04:03:18;;;;;;;4.32;2.72;;;16.20;55.00;;;;;;5086013;28;20170;-63
2021/01/08 04:05:43;;;;;;;3.45;2.45;;;16.20;55.00;;;;;;5086521;28;20647;-64
2021/01/08 04:08:09;;;;;;;3.28;2.38;;;16.20;55.00;;;;;;5086494;28;20232;-63
2021/01/08 04:10:34;;;;;;;2.95;2.40;;;16.20;55.10;;;;;;5086532;28;20190;-63
2021/01/08 04:13:00;;;;;;;3.72;2.65;;;16.20;55.00;;;;;;5086589;28;20170;-64
2021/01/08 04:15:25;;;;;;;3.75;2.95;;;16.20;55.00;;;;;;5086120;28;20205;-64
2021/01/08 04:17:51;;;;;;;3.22;2.63;;;16.20;55.00;;;;;;5086491;28;20576;-63
2021/01/08 04:20:17;;;;;;;3.47;2.25;;;16.20;55.00;;;;;;5068221;28;20185;-64
2021/01/08 04:22:42;;;;;;;3.92;2.80;;;16.20;55.00;;;;;;5086249;28;20174;-64
2021/01/08 04:25:08;;;;;;;3.65;2.50;;;16.10;55.00;;;;;;5085972;28;20188;-62
2021/01/08 04:27:34;;;;;;;4.05;2.92;;;16.10;55.00;;;;;;5081226;28;20557;-62
2021/01/08 04:29:59;;;;;;;3.35;2.50;;;16.10;55.00;;;;;;5086087;28;20182;-63
2021/01/08 04:32:25;;;;;;;4.63;2.70;;;16.10;55.00;;;;;;5086220;28;20184;-62
2021/01/08 04:34:50;;;;;;;3.90;2.72;;;16.10;55.00;;;;;;5084659;28;20205;-64
2021/01/08 04:37:16;;;;;;;3.95;2.67;;;16.10;55.00;;;;;;5085482;28;20196;-64
2021/01/08 04:39:41;;;;;;;2.63;2.30;;;16.00;54.90;;;;;;5085726;28;20920;-64
2021/01/08 04:42:07;;;;;;;4.30;2.70;;;16.10;55.00;;;;;;5085685;28;20521;-64
2021/01/08 04:44:32;;;;;;;3.05;2.40;;;16.10;55.00;;;;;;5085369;28;20538;-64
2021/01/08 04:46:58;;;;;;;3.83;2.67;;;16.10;55.00;;;;;;5067565;28;20217;-64
2021/01/08 04:49:23;;;;;;;3.35;2.30;;;16.10;55.00;;;;;;5067382;28;20266;-63
2021/01/08 04:51:49;;;;;;;2.28;2.08;;;16.00;54.90;;;;;;5067467;28;20178;-63
2021/01/08 04:54:15;;;;;;;3.35;2.10;;;16.00;54.90;;;;;;5066886;28;20280;-64
2021/01/08 04:56:44;;;;;;;3.08;2.28;;;16.10;55.00;;;;;;5067121;28;20971;-64
2021/01/08 04:59:10;;;;;;;2.92;2.33;;;16.00;54.90;;;;;;5067388;28;20181;-65
2021/01/08 05:01:36;;;;;;;3.83;2.65;;;16.00;54.90;;;;;;5085445;28;21016;-63
2021/01/08 05:04:02;;;;;;;3.17;2.33;;;16.00;54.90;;;;;;5084877;28;20170;-64
2021/01/08 05:06:27;;;;;;;2.65;2.22;;;16.00;55.00;;;;;;5067111;28;20185;-64
2021/01/08 05:08:53;;;;;;;3.97;2.60;;;16.00;54.90;;;;;;5067195;28;20326;-64
2021/01/08 05:11:19;;;;;;;3.13;2.30;;;16.00;54.90;;;;;;5066910;28;20170;-65
2021/01/08 05:13:50;;;;;;;2.75;1.95;;;16.00;55.00;;;;;;5067122;28;20170;-65
2021/01/08 05:16:15;;;;;;;3.00;2.00;;;16.00;55.00;;;;;;5067039;28;21056;-64
2021/01/08 05:18:41;;;;;;;2.15;1.90;;;16.00;55.00;;;;;;5084851;28;20177;-64
2021/01/08 05:21:07;;;;;;;2.95;2.25;;;16.00;54.90;;;;;;5066938;28;20170;-64
2021/01/08 05:23:32;;;;;;;3.22;2.40;;;15.90;54.90;;;;;;5084673;28;20170;-65
2021/01/08 05:25:58;;;;;;;2.97;2.30;;;16.00;55.00;;;;;;5066369;28;20643;-64
2021/01/08 05:28:23;;;;;;;2.22;2.03;;;15.90;55.00;;;;;;5066879;28;20201;-64
2021/01/08 05:30:49;;;;;;;2.13;1.90;;;15.90;55.00;;;;;;5084406;28;20170;-63
2021/01/08 05:33:15;;;;;;;3.28;2.33;;;15.90;54.90;;;;;;5085001;28;20280;-63
2021/01/08 05:35:41;;;;;;;2.78;2.10;;;15.90;55.00;;;;;;5084616;28;20209;-64
2021/01/08 05:38:07;;;;;;;2.85;1.85;;;15.90;55.00;;;;;;5066987;28;20537;-64
2021/01/08 05:40:33;;;;;;;2.70;2.13;;;15.90;55.00;;;;;;5084470;28;20177;-65
2021/01/08 05:43:01;;;;;;;2.20;1.92;;;15.90;55.00;;;;;;5066702;28;20209;-65
2021/01/08 05:45:28;;;;;;;3.47;2.20;;;15.90;55.00;;;;;;5084307;28;20190;-65
2021/01/08 05:47:58;;;;;;;2.80;2.40;;;15.90;55.00;;;;;;5084711;28;20976;-64
2021/01/08 05:50:25;;;;;;;2.35;1.95;;;15.90;55.60;;;;;;5084604;28;20555;-64
2021/01/08 05:52:58;;;;;;;3.08;2.30;;;15.90;55.00;;;;;;5066465;28;20177;-64
2021/01/08 05:55:26;;;;;;;2.03;1.80;;;15.90;55.00;;;;;;5084399;28;20691;-63
2021/01/08 05:57:53;;;;;;;2.85;2.05;;;15.80;55.00;;;;;;5084495;28;20212;-63
2021/01/08 06:00:19;;;;;;;2.75;2.13;;;15.80;55.00;;;;;;5084758;28;20174;-63
2021/01/08 06:02:45;;;;;;;2.45;1.95;;;15.90;55.00;;;;;;5084359;28;20178;-63
2021/01/08 06:05:11;;;;;;;2.25;1.80;;;15.90;55.10;;;;;;5066404;28;20193;-63
2021/01/08 06:07:38;;;;;;;2.08;1.73;;;16.00;55.20;;;;;;5065518;28;20272;-62
2021/01/08 06:10:05;;;;;;;2.63;2.03;;;16.20;55.10;;;;;;5084215;28;20170;-63
2021/01/08 06:12:38;;;;;;;2.33;1.83;;;16.50;55.10;;;;;;5084223;28;20173;-64
2021/01/08 06:15:09;;;;;;;2.10;1.83;;;16.80;54.70;;;;;;5084397;28;20210;-64
2021/01/08 06:17:38;;;;;;;1.98;1.77;;;17.00;54.00;;;;;;5066035;28;20207;-64
2021/01/08 06:20:05;;;;;;;2.50;2.15;;;17.40;53.30;;;;;;5084127;28;20212;-64
2021/01/08 06:22:37;;;;;;;2.53;1.98;;;17.70;52.70;;;;;;5066190;28;20236;-65
2021/01/08 06:25:04;;;;;;;2.00;1.60;;;18.10;52.20;;;;;;5083925;28;20178;-64
2021/01/08 06:27:31;;;;;;;1.92;1.55;;;18.30;51.70;;;;;;5083924;28;20976;-64
2021/01/08 06:30:00;;;;;;;3.25;1.88;;;18.60;51.20;;;;;;5066133;28;20663;-63
2021/01/08 06:32:27;;;;;;;2.10;1.73;;;18.70;51.10;;;;;;5083752;28;20227;-64
2021/01/08 06:34:53;;;;;;;2.22;1.65;;;18.80;50.90;;;;;;5065916;28;20320;-64
2021/01/08 06:37:21;;;;;;;1.58;1.40;;;18.80;50.70;;;;;;5065995;28;20995;-64
2021/01/08 06:39:47;;;;;;;1.75;1.52;;;18.90;51.40;;;;;;5066597;28;20289;-64
2021/01/08 06:42:26;;;;;;;1.80;1.60;;;18.80;50.90;;;;;;5084161;28;20282;-64
2021/01/08 06:44:54;;;;;;;2.20;1.75;;;18.80;50.90;;;;;;5066789;28;20177;-64
2021/01/08 06:47:22;;;;;;;1.55;1.33;;;18.80;50.90;;;;;;5065799;28;20256;-65
2021/01/08 06:49:51;;;;;;;1.90;1.70;;;18.80;50.90;;;;;;5066498;28;20175;-63
2021/01/08 06:52:17;;;;;;;1.88;1.77;;;18.80;51.10;;;;;;5066169;28;20169;-64
2021/01/08 06:54:43;;;;;;;1.70;1.45;;;18.70;51.10;;;;;;5065749;28;20212;-63
2021/01/08 06:57:16;;;;;;;2.25;1.60;;;18.70;51.10;;;;;;5084663;28;20548;-63
2021/01/08 06:59:42;;;;;;;2.50;1.30;;;18.70;51.20;;;;;;5087535;28;20174;-64
2021/01/08 07:02:15;;;;;;;1.40;1.30;;;18.70;51.30;;;;;;5069674;28;20166;-64
2021/01/08 07:04:41;;;;;;;1.40;1.20;;;18.60;51.30;;;;;;5069791;28;20315;-64
2021/01/08 07:07:20;;;;;;;1.40;1.30;;;18.70;51.40;;;;;;5052782;28;20301;-63
2021/01/08 07:09:46;;;;;;;1.70;1.30;;;18.60;51.50;;;;;;5087590;28;20538;-63
2021/01/08 07:12:12;;;;;;;1.40;1.30;;;18.50;51.60;;;;;;5069326;28;20188;-64
2021/01/08 07:14:38;;;;;;;2.25;1.30;;;18.30;51.90;;;;;;5069429;28;20166;-65
2021/01/08 07:17:09;;;;;;;2.08;1.42;;;18.30;52.00;;;;;;5087284;28;20193;-65
2021/01/08 07:19:36;;;;;;;1.40;1.27;;;18.20;52.20;;;;;;5069653;28;20512;-64
2021/01/08 07:22:03;;;;;;;1.55;1.30;;;18.10;52.30;;;;;;5068846;28;20221;-63
2021/01/08 07:24:35;;;;;;;1.95;1.55;;;18.10;52.50;;;;;;5069468;28;20173;-64
2021/01/08 07:27:23;;;;;;;1.08;1.00;;;18.00;52.50;;;;;;5068916;28;20642;-64
2021/01/08 07:29:57;;;;;;;1.95;1.42;;;18.00;52.60;;;;;;5086894;28;20251;-63
2021/01/08 07:32:44;;;;;;;1.42;1.20;;;18.00;52.70;;;;;;5087037;28;20280;-63
2021/01/08 07:35:26;;;;;;;1.40;1.30;;;17.90;52.80;;;;;;5086588;28;20201;-63
2021/01/08 07:38:07;;;;;;;1.52;1.20;;;17.80;52.90;;;;;;5087279;28;20682;-64
2021/01/08 07:40:34;;;;;;;1.92;1.30;;;17.70;53.00;;;;;;5086775;28;20224;-65
2021/01/08 07:43:03;;;;;;;1.30;1.20;;;17.60;53.20;;;;;;5068881;28;20185;-63
2021/01/08 07:45:53;;;;;;;1.30;1.20;;;17.60;53.30;;;;;;5068673;28;20173;-64
2021/01/08 07:48:35;;;;;;;1.65;1.30;;;17.60;53.30;;;;;;5068801;28;20166;-64
2021/01/08 07:51:05;;;;;;;1.55;1.45;;;17.50;53.30;;;;;;5071008;28;20170;-65
2021/01/08 07:53:43;;;;;;;1.13;1.00;;;17.60;53.30;;;;;;5086106;28;20631;-64
2021/01/08 07:56:20;;;;;;;1.25;1.10;;;17.60;53.20;;;;;;5086216;28;20617;-64
2021/01/08 07:58:47;;;;;;;1.27;1.00;;;17.70;53.10;;;;;;5086486;28;20420;-65
2021/01/08 08:01:13;;;;;;;1.67;1.10;;;17.70;53.00;;;;;;5068545;28;20970;-64
2021/01/08 08:03:39;;;;;;;1.40;1.30;;;17.70;52.90;;;;;;5086536;28;20894;-64
2021/01/08 08:06:05;;;;;;;1.95;1.17;;;17.70;53.00;;;;;;5086382;28;20238;-63
2021/01/08 08:08:31;;;;;;;1.30;1.20;;;17.70;53.00;;;;;;5051498;28;21036;-63
2021/01/08 08:11:16;;;;;;;1.52;1.20;;;17.60;53.10;;;;;;5086116;28;20182;-64
2021/01/08 08:13:43;;;;;;;1.40;1.30;;;17.60;53.30;;;;;;5086419;28;20525;-63
2021/01/08 08:16:09;;;;;;;2.40;1.20;;;17.50;53.40;;;;;;5086149;28;20210;-63
2021/01/08 08:18:52;;;;;;;1.70;1.30;;;17.50;53.70;;;;;;5086104;28;20181;-64
2021/01/08 08:21:17;;;;;;;1.85;0.95;;;17.50;53.60;;;;;;5070652;28;20186;-64
2021/01/08 08:23:53;;;;;;;0.93;0.93;;;17.50;53.50;;;;;;5085760;28;20174;-64
2021/01/08 08:26:19;;;;;;;1.02;0.90;;;17.50;53.40;;;;;;5068148;28;20208;-65
2021/01/08 08:28:57;;;;;;;2.45;1.13;;;17.50;53.40;;;;;;5086447;28;20273;-66
2021/01/08 08:31:27;;;;;;;1.35;0.98;;;17.60;53.30;;;;;;5067687;28;20185;-65
2021/01/08 08:33:52;;;;;;;1.13;0.90;;;17.60;53.20;;;;;;5068415;28;20192;-64
2021/01/08 08:36:22;;;;;;;1.55;1.17;;;17.70;53.20;;;;;;5085910;28;20714;-64
2021/01/08 08:39:07;;;;;;;0.98;0.98;;;17.70;53.00;;;;;;5085334;28;20166;-64
2021/01/08 08:41:38;;;;;;;1.05;0.95;;;17.70;53.00;;;;;;5085686;28;20173;-65
2021/01/08 08:44:10;;;;;;;1.15;1.05;;;17.70;53.00;;;;;;5085687;28;20217;-64
2021/01/08 08:46:44;;;;;;;1.38;0.90;;;17.60;53.10;;;;;;5085193;28;20177;-66
2021/01/08 08:49:11;;;;;;;1.08;0.73;;;17.60;53.20;;;;;;5085699;28;20178;-63
2021/01/08 08:51:43;;;;;;;1.40;1.00;;;17.50;53.30;;;;;;5085866;28;20239;-64
2021/01/08 08:54:09;;;;;;;2.17;0.85;;;17.50;53.50;;;;;;5067608;28;20170;-64
2021/01/08 08:56:38;;;;;;;1.85;1.10;;;17.40;53.50;;;;;;5085426;28;20205;-64
2021/01/08 08:59:03;;;;;;;1.88;0.82;;;17.50;53.50;;;;;;5067929;28;20184;-65
2021/01/08 09:01:39;;;;;;;1.05;0.90;;;17.50;53.50;;;;;;5085338;28;20173;-64
2021/01/08 09:04:09;;;;;;;0.98;0.90;;;17.50;53.50;;;;;;5085010;28;20264;-65
2021/01/08 09:06:36;;;;;;;1.05;0.90;;;17.50;53.40;;;;;;5085116;28;20180;-64
2021/01/08 09:09:09;;;;;;;0.98;0.82;;;17.60;53.40;;;;;;5067407;28;20184;-65
2021/01/08 09:11:38;;;;;;;0.95;0.90;;;17.60;53.30;;;;;;5067235;28;20178;-65
2021/01/08 09:14:11;;;;;;;1.25;0.98;;;17.70;53.20;;;;;;5067240;28;20170;-65
2021/01/08 09:16:43;;;;;;;1.20;1.10;;;17.70;53.10;;;;;;5066495;28;20550;-65
2021/01/08 09:19:39;;;;;;;0.85;0.80;;;17.60;53.10;;;;;;5067661;28;20174;-65
2021/01/08 09:22:05;;;;;;;0.88;0.80;;;17.60;53.20;;;;;;5059344;28;20239;-65
2021/01/08 09:24:34;;;;;;;0.80;0.80;;;17.50;53.30;;;;;;5085048;28;20162;-65
2021/01/08 09:27:03;;;;;;;0.93;0.80;;;17.50;53.50;;;;;;5084913;28;20208;-64
2021/01/08 09:29:31;;;;;;;1.13;1.02;;;17.50;53.50;;;;;;5066704;28;20284;-65
2021/01/08 09:31:56;;;;;;;1.35;0.90;;;17.40;53.50;;;;;;5066813;28;20230;-66
2021/01/08 09:34:23;;;;;;;0.70;0.70;;;17.40;53.50;;;;;;5084525;28;20178;-65
2021/01/08 09:36:49;;;;;;;0.77;0.70;;;17.50;53.50;;;;;;5084689;28;20218;-64
2021/01/08 09:39:14;;;;;;;0.93;0.88;;;17.50;53.40;;;;;;5066848;28;20180;-64
2021/01/08 09:41:41;;;;;;;0.88;0.85;;;17.60;53.40;;;;;;5084564;28;20174;-64
2021/01/08 09:44:07;;;;;;;0.82;0.73;;;17.60;53.30;;;;;;5084572;28;21094;-64
2021/01/08 09:46:55;;;;;;;1.17;0.70;;;17.70;53.30;;;;;;5084591;28;20235;-65
2021/01/08 09:49:21;;;;;;;0.75;0.75;;;17.70;53.20;;;;;;5084580;28;20204;-64
2021/01/08 09:51:47;;;;;;;0.70;0.70;;;17.60;53.10;;;;;;5084707;28;20202;-64
2021/01/08 09:54:12;;;;;;;1.42;0.85;;;17.60;53.20;;;;;;5084271;28;20181;-64
2021/01/08 09:56:38;;;;;;;1.55;1.00;;;17.60;53.30;;;;;;5084282;28;20201;-65
2021/01/08 09:59:16;;;;;;;0.85;0.75;;;17.60;53.40;;;;;;5084197;28;20530;-65
2021/01/08 10:01:59;;;;;;;0.77;0.60;;;17.50;53.40;;;;;;5084248;28;20331;-65
2021/01/08 10:04:31;;;;;;;0.73;0.73;;;17.50;53.60;;;;;;5084425;28;20226;-65
2021/01/08 10:07:01;;;;;;;0.90;0.73;;;17.50;53.60;;;;;;5084207;28;20169;-64
2021/01/08 10:09:27;;;;;;;0.50;0.50;;;17.50;53.50;;;;;;5084544;28;20186;-64
2021/01/08 10:11:59;;;;;;;0.70;0.70;;;17.60;53.50;;;;;;5084069;28;20174;-65
2021/01/08 10:14:29;;;;;;;1.42;0.90;;;17.60;53.40;;;;;;5083800;28;20170;-64
2021/01/08 10:17:06;;;;;;;0.80;0.80;;;17.60;53.40;;;;;;5083936;28;20213;-64
2021/01/08 10:19:32;;;;;;;0.63;0.60;;;17.70;53.30;;;;;;5066286;28;20166;-63
2021/01/08 10:22:01;;;;;;;0.50;0.50;;;17.60;53.20;;;;;;5065944;28;20190;-64
2021/01/08 10:24:27;;;;;;;0.90;0.90;;;17.60;53.30;;;;;;5084185;28;20624;-66
2021/01/08 10:26:53;;;;;;;0.57;0.57;;;17.60;53.30;;;;;;5084344;28;20175;-65
2021/01/08 10:29:18;;;;;;;0.85;0.68;;;17.60;53.40;;;;;;5084202;28;20276;-65
2021/01/08 10:31:44;;;;;;;0.55;0.50;;;17.50;53.40;;;;;;5084252;28;20170;-65
2021/01/08 10:34:09;;;;;;;0.65;0.63;;;17.50;53.60;;;;;;5087899;28;20627;-65
2021/01/08 10:36:35;;;;;;;0.57;0.57;;;17.50;53.60;;;;;;5088119;28;20304;-64
2021/01/08 10:39:01;;;;;;;0.73;0.60;;;17.50;53.60;;;;;;5088187;28;20166;-65
2021/01/08 10:41:26;;;;;;;0.70;0.70;;;17.50;53.70;;;;;;5088247;28;20239;-65
2021/01/08 10:43:52;;;;;;;0.82;0.60;;;17.60;53.70;;;;;;5088359;28;20185;-64
2021/01/08 10:46:21;;;;;;;0.47;0.47;;;17.60;53.60;;;;;;5088089;28;20184;-65
2021/01/08 10:48:47;;;;;;;0.52;0.50;;;17.60;53.40;;;;;;5087684;28;20673;-64
2021/01/08 10:51:12;;;;;;;0.60;0.60;;;17.60;53.40;;;;;;5088258;28;20248;-66
2021/01/08 10:53:38;;;;;;;0.40;0.40;;;17.50;53.50;;;;;;5087887;28;20174;-65
2021/01/08 10:56:04;;;;;;;0.75;0.75;;;17.60;53.60;;;;;;5087812;28;20570;-65
2021/01/08 10:58:30;;;;;;;0.60;0.60;;;17.50;53.60;;;;;;5087923;28;20174;-63
2021/01/08 11:00:56;;;;;;;0.90;0.68;;;17.40;53.70;;;;;;5069977;28;20169;-64
2021/01/08 11:03:21;;;;;;;0.60;0.60;;;17.40;54.40;;;;;;5087438;28;20695;-65
2021/01/08 11:05:47;;;;;;;0.63;0.63;;;17.40;53.90;;;;;;5069883;28;20547;-64
2021/01/08 11:08:13;;;;;;;0.57;0.57;;;17.40;53.90;;;;;;5087713;28;20165;-64
2021/01/08 11:10:39;;;;;;;0.47;0.47;;;17.40;53.90;;;;;;5069897;28;20177;-64
2021/01/08 11:13:04;;;;;;;0.82;0.82;;;17.40;53.90;;;;;;5087834;28;20239;-65
2021/01/08 11:15:30;;;;;;;0.60;0.60;;;17.40;53.80;;;;;;5087149;28;20209;-64
2021/01/08 11:17:56;;;;;;;0.52;0.50;;;17.40;53.80;;;;;;5087093;28;20170;-64
2021/01/08 11:20:21;;;;;;;0.65;0.60;;;17.40;53.80;;;;;;5068467;28;20248;-67
2021/01/08 11:22:47;;;;;;;0.52;0.50;;;17.40;53.80;;;;;;5087134;28;21006;-63
2021/01/08 11:25:13;;;;;;;1.38;0.50;;;17.30;54.20;;;;;;5087313;28;20234;-64
2021/01/08 11:27:42;;;;;;;1.00;0.73;;;17.30;54.20;;;;;;5086814;28;20280;-66
2021/01/08 11:30:08;;;;;;;1.55;1.00;;;17.30;54.50;;;;;;5086014;28;20204;-64
2021/01/08 11:32:34;;;;;;;0.70;0.70;;;17.30;54.70;;;;;;5067932;28;20170;-64
2021/01/08 11:35:00;;;;;;;1.33;0.77;;;17.30;54.80;;;;;;5085982;28;20673;-63
2021/01/08 11:37:28;;;;;;;1.25;0.82;;;17.30;54.80;;;;;;5086079;28;20182;-65
2021/01/08 11:39:54;;;;;;;1.05;0.77;;;17.40;54.90;;;;;;5068305;28;20242;-64
2021/01/08 11:42:19;;;;;;;1.17;0.68;;;17.60;54.70;;;;;;5086014;28;20177;-65
2021/01/08 11:44:45;;;;;;;1.73;0.80;;;17.90;54.20;;;;;;5085473;28;20185;-64
2021/01/08 11:47:10;;;;;;;0.60;0.60;;;18.20;53.80;;;;;;5085896;28;20177;-65
2021/01/08 11:49:36;;;;;;;1.20;0.70;;;18.50;53.30;;;;;;5086789;28;20174;-65
2021/01/08 11:52:02;;;;;;;1.73;0.93;;;18.80;52.80;;;;;;5068923;28;20182;-65
2021/01/08 11:54:27;;;;;;;1.23;0.70;;;19.00;52.40;;;;;;5085946;28;20682;-64
2021/01/08 11:56:53;;;;;;;0.88;0.70;;;19.20;52.00;;;;;;5085572;28;20217;-66
2021/01/08 11:59:18;;;;;;;0.57;0.57;;;19.40;51.70;;;;;;5086749;28;20176;-65
2021/01/08 12:01:44;;;;;;;1.92;0.75;;;19.60;51.50;;;;;;5068254;28;20198;-64
2021/01/08 12:04:10;;;;;;;0.85;0.70;;;19.70;51.40;;;;;;5086627;28;20201;-64
2021/01/08 12:06:35;;;;;;;4.07;1.00;;;19.70;51.40;;;;;;5086405;28;20205;-65
2021/01/08 12:09:01;;;;;;;0.82;0.77;;;19.70;51.40;;;;;;5086408;28;20533;-64
2021/01/08 12:11:27;;;;;;;0.85;0.70;;;19.60;51.50;;;;;;5068192;28;20261;-66
2021/01/08 12:13:52;;;;;;;3.05;0.90;;;19.50;51.60;;;;;;5068280;28;20285;-62
2021/01/08 12:16:28;;;;;;;1.20;0.98;;;19.40;51.90;;;;;;5086019;28;20204;-61
2021/01/08 12:18:54;;;;;;;3.15;1.00;;;19.30;52.00;;;;;;5086604;28;20185;-65
2021/01/08 12:21:20;;;;;;;1.38;0.77;;;19.30;52.20;;;;;;5086204;28;20178;-65
2021/01/08 12:23:45;;;;;;;2.25;0.75;;;19.30;52.30;;;;;;5068035;28;20165;-64
2021/01/08 12:26:13;;;;;;;2.05;0.73;;;19.30;52.30;;;;;;5085896;28;20178;-64
2021/01/08 12:28:39;;;;;;;2.38;1.00;;;19.20;52.30;;;;;;5085648;28;20197;-64
2021/01/08 12:31:04;;;;;;;1.23;1.02;;;19.20;52.40;;;;;;5085898;28;20174;-64
2021/01/08 12:33:30;;;;;;;3.22;0.50;;;19.20;52.40;;;;;;5067754;28;20193;-63
2021/01/08 12:35:55;;;;;;;2.20;0.77;;;19.20;52.50;;;;;;5085319;28;20216;-64
2021/01/08 12:38:21;;;;;;;1.42;0.90;;;19.20;52.40;;;;;;5085892;28;20177;-65
2021/01/08 12:40:47;;;;;;;0.85;0.70;;;19.30;52.50;;;;;;5085800;28;21049;-64
2021/01/08 12:43:12;;;;;;;0.93;0.88;;;19.30;52.30;;;;;;5085783;28;20553;-64
2021/01/08 12:45:38;;;;;;;1.40;0.82;;;19.30;52.40;;;;;;5085325;28;20170;-64
2021/01/08 12:48:06;;;;;;;3.13;0.70;;;19.20;52.50;;;;;;5085760;28;20177;-64